createdAt,value
2022-10-05T00:00:15.144Z,100890.03
2022-10-05T00:02:43.015Z,100888.25
2022-10-05T00:05:24.077Z,100891.69
2022-10-05T00:07:52.679Z,100893.59
2022-10-05T00:10:20.430Z,100896.16
2022-10-05T00:12:48.489Z,100888.44
2022-10-05T00:15:18.169Z,100891.81
2022-10-05T00:17:45.435Z,100887.50
2022-10-05T00:20:25.183Z,100881.41
2022-10-05T00:22:57.866Z,100878.75
2022-10-05T00:25:25.037Z,100881.44
2022-10-05T00:27:58.114Z,100885.78
2022-10-05T00:30:30.691Z,100874.50
2022-10-05T00:32:59.824Z,100873.69
2022-10-05T00:35:29.332Z,100872.59
2022-10-05T00:37:57.054Z,100875.16
2022-10-05T00:40:27.559Z,100877.78
2022-10-05T00:43:02.111Z,100875.91
2022-10-05T00:45:33.624Z,100879.16
2022-10-05T00:48:11.780Z,100875.91
2022-10-05T00:51:15.982Z,100884.50
2022-10-05T00:53:44.252Z,100882.84
2022-10-05T00:56:11.766Z,100885.44
2022-10-05T00:59:25.797Z,100881.31
2022-10-05T01:02:05.463Z,100882.94
2022-10-05T01:04:47.576Z,100886.44
2022-10-05T01:07:23.393Z,100879.50
2022-10-05T01:10:08.213Z,100876.94
2022-10-05T01:12:49.321Z,100875.91
2022-10-05T01:15:25.154Z,100886.38
2022-10-05T01:18:10.896Z,100897.53
2022-10-05T01:21:03.549Z,100896.50
2022-10-05T01:23:40.207Z,100897.53
2022-10-05T01:26:41.247Z,100907.00
2022-10-05T01:29:22.449Z,100911.03
2022-10-05T01:31:49.757Z,100903.91
2022-10-05T01:34:23.178Z,100909.28
2022-10-05T01:37:09.738Z,100913.56
2022-10-05T01:39:49.226Z,100912.78
2022-10-05T01:42:44.998Z,100912.91
2022-10-05T01:45:25.043Z,100911.06
2022-10-05T01:48:08.972Z,100909.94
2022-10-05T01:51:04.024Z,100910.94
2022-10-05T01:53:45.851Z,100904.50
2022-10-05T01:56:37.383Z,100896.88
2022-10-05T02:02:06.178Z,100909.28
2022-10-05T02:05:01.406Z,100909.41
2022-10-05T02:07:39.156Z,100914.56
2022-10-05T02:10:22.148Z,100926.06
2022-10-05T02:12:52.998Z,100926.97
2022-10-05T02:15:32.030Z,100926.91
2022-10-05T02:18:06.866Z,100922.31
2022-10-05T02:20:35.289Z,100926.81
2022-10-05T02:23:08.031Z,100930.38
2022-10-05T02:25:38.819Z,100923.25
2022-10-05T02:28:21.770Z,100933.91
2022-10-05T02:31:10.703Z,100938.16
2022-10-05T02:33:38.637Z,100929.25
2022-10-05T02:36:18.551Z,100924.09
2022-10-05T02:39:10.237Z,100928.41
2022-10-05T02:41:46.630Z,100936.13
2022-10-05T02:44:26.656Z,100931.78
2022-10-05T02:47:19.712Z,100931.56
2022-10-05T02:49:53.107Z,100931.50
2022-10-05T02:52:22.087Z,100938.34
2022-10-05T02:54:59.140Z,100929.91
2022-10-05T02:57:48.204Z,100939.50
2022-10-05T03:00:21.828Z,100933.34
2022-10-05T03:03:01.216Z,100935.16
2022-10-05T03:05:51.628Z,100933.69
2022-10-05T03:08:24.914Z,100924.03
2022-10-05T03:11:06.476Z,100918.66
2022-10-05T03:13:46.618Z,100917.69
2022-10-05T03:16:36.341Z,100910.00
2022-10-05T03:19:19.463Z,100911.91
2022-10-05T03:21:55.293Z,100909.34
2022-10-05T03:24:58.358Z,100904.03
2022-10-05T03:27:25.792Z,100898.66
2022-10-05T03:30:13.815Z,100897.63
2022-10-05T03:32:50.990Z,100896.81
2022-10-05T03:35:20.834Z,100895.97
2022-10-05T03:37:58.724Z,100898.47
2022-10-05T03:40:37.012Z,100907.09
2022-10-05T03:43:32.479Z,100914.87
2022-10-05T03:46:26.546Z,100907.94
2022-10-05T03:49:10.833Z,100915.69
2022-10-05T03:51:43.286Z,100919.81
2022-10-05T03:54:26.037Z,100924.25
2022-10-05T03:56:54.823Z,100932.06
2022-10-05T03:59:32.219Z,100931.94
2022-10-05T04:02:03.124Z,100937.22
2022-10-05T04:04:37.675Z,100930.06
2022-10-05T04:07:09.789Z,100938.63
2022-10-05T04:09:41.223Z,100936.13
2022-10-05T04:12:27.756Z,100936.09
2022-10-05T04:15:01.751Z,100933.50
2022-10-05T04:17:39.453Z,100936.03
2022-10-05T04:20:17.645Z,100936.06
2022-10-05T04:23:03.888Z,100940.28
2022-10-05T04:25:43.659Z,100941.13
2022-10-05T04:28:49.856Z,100944.59
2022-10-05T04:31:35.586Z,100941.84
2022-10-05T04:34:24.464Z,100941.87
2022-10-05T04:36:59.283Z,100939.38
2022-10-05T04:39:58.963Z,100937.47
2022-10-05T04:42:33.720Z,100945.87
2022-10-05T04:45:13.461Z,100949.37
2022-10-05T04:47:52.165Z,100951.97
2022-10-05T04:50:25.424Z,100949.44
2022-10-05T04:53:19.459Z,100953.75
2022-10-05T04:56:10.256Z,100950.19
2022-10-05T04:59:07.522Z,100952.88
2022-10-05T05:01:56.967Z,100945.84
2022-10-05T05:04:51.798Z,100945.87
2022-10-05T05:07:44.783Z,100940.53
2022-10-05T05:10:46.550Z,100945.78
2022-10-05T05:13:35.246Z,100952.63
2022-10-05T05:16:05.965Z,100935.41
2022-10-05T05:18:48.944Z,100938.97
2022-10-05T05:21:39.932Z,100937.09
2022-10-05T05:24:33.986Z,100947.66
2022-10-05T05:27:26.524Z,100945.06
2022-10-05T05:30:03.141Z,100948.69
2022-10-05T05:32:55.389Z,100944.41
2022-10-05T05:35:38.036Z,100945.34
2022-10-05T05:38:33.580Z,100953.91
2022-10-05T05:41:12.418Z,100961.97
2022-10-05T05:43:55.673Z,100960.50
2022-10-05T05:46:51.242Z,100955.66
2022-10-05T05:49:46.016Z,100966.22
2022-10-05T05:52:18.454Z,100967.75
2022-10-05T05:54:54.078Z,100970.53
2022-10-05T05:57:28.926Z,100984.47
2022-10-05T06:00:07.559Z,100982.31
2022-10-05T06:02:47.227Z,100989.59
2022-10-05T06:05:30.589Z,100985.47
2022-10-05T06:08:02.345Z,100990.84
2022-10-05T06:10:44.065Z,100999.66
2022-10-05T06:13:16.912Z,100987.72
2022-10-05T06:15:57.769Z,100993.97
2022-10-05T06:18:25.680Z,101005.41
2022-10-05T06:21:14.886Z,101022.84
2022-10-05T06:23:50.719Z,101034.31
2022-10-05T06:26:51.246Z,101030.94
2022-10-05T06:29:22.845Z,101040.59
2022-10-05T06:32:06.900Z,101035.47
2022-10-05T06:34:50.237Z,101032.03
2022-10-05T06:37:26.144Z,101033.81
2022-10-05T06:40:03.147Z,101034.72
2022-10-05T06:42:50.039Z,101047.81
2022-10-05T06:45:53.944Z,101050.41
2022-10-05T06:48:34.295Z,101052.16
2022-10-05T06:51:15.643Z,101048.75
2022-10-05T06:54:07.980Z,101054.91
2022-10-05T06:57:01.431Z,101056.66
2022-10-05T06:59:51.031Z,101060.09
2022-10-05T07:02:40.276Z,101062.72
2022-10-05T07:05:37.888Z,101058.28
2022-10-05T07:08:24.338Z,101067.84
2022-10-05T07:11:11.351Z,101078.31
2022-10-05T07:14:05.203Z,101073.09
2022-10-05T07:16:52.681Z,101082.62
2022-10-05T07:19:49.319Z,101069.34
2022-10-05T07:22:28.247Z,101070.16
2022-10-05T07:25:02.228Z,101066.72
2022-10-05T07:27:34.728Z,101051.94
2022-10-05T07:30:10.440Z,101053.69
2022-10-05T07:33:09.280Z,101064.91
2022-10-05T07:36:10.932Z,101063.03
2022-10-05T07:38:48.507Z,101077.06
2022-10-05T07:41:24.219Z,101062.91
2022-10-05T07:44:11.670Z,101055.56
2022-10-05T07:46:50.239Z,101060.00
2022-10-05T07:49:48.848Z,101061.84
2022-10-05T07:52:39.074Z,101060.75
2022-10-05T07:55:19.125Z,101051.88
2022-10-05T07:57:53.387Z,101054.81
2022-10-05T08:00:22.820Z,101060.81
2022-10-05T08:02:58.508Z,101061.53
2022-10-05T08:05:28.878Z,101065.66
2022-10-05T08:08:06.811Z,101070.78
2022-10-05T08:10:37.069Z,101077.66
2022-10-05T08:13:11.187Z,101074.00
2022-10-05T08:15:45.315Z,101071.37
2022-10-05T08:18:19.598Z,101065.09
2022-10-05T08:20:51.916Z,101069.16
2022-10-05T08:23:44.542Z,101063.84
2022-10-05T08:26:30.445Z,101058.16
2022-10-05T08:29:22.420Z,101060.06
2022-10-05T08:31:53.131Z,101047.41
2022-10-05T08:34:36.104Z,101038.38
2022-10-05T08:37:08.663Z,101041.88
2022-10-05T08:39:41.241Z,101041.00
2022-10-05T08:42:33.444Z,101040.09
2022-10-05T08:45:23.092Z,101034.59
2022-10-05T08:48:29.603Z,101044.91
2022-10-05T08:51:15.895Z,101031.47
2022-10-05T08:54:05.059Z,101016.31
2022-10-05T08:56:35.595Z,101026.19
2022-10-05T08:59:27.916Z,101026.63
2022-10-05T09:02:17.185Z,101021.56
2022-10-05T09:04:51.202Z,101029.69
2022-10-05T09:07:22.182Z,101031.28
2022-10-05T09:10:11.397Z,101039.31
2022-10-05T09:12:42.024Z,101043.31
2022-10-05T09:15:39.509Z,101044.16
2022-10-05T09:18:16.207Z,101044.94
2022-10-05T09:20:52.964Z,101053.38
2022-10-05T09:23:40.322Z,101052.72
2022-10-05T09:26:45.458Z,101051.41
2022-10-05T09:29:50.705Z,101057.13
2022-10-05T09:32:32.948Z,101061.91
2022-10-05T09:35:25.915Z,101063.63
2022-10-05T09:38:08.306Z,101059.97
2022-10-05T09:40:57.763Z,101055.94
2022-10-05T09:43:43.996Z,101062.75
2022-10-05T09:46:29.182Z,101057.56
2022-10-05T09:49:34.543Z,101068.91
2022-10-05T09:52:31.410Z,101056.16
2022-10-05T09:55:26.638Z,101055.34
2022-10-05T09:58:15.904Z,101049.44
2022-10-05T10:00:54.239Z,101051.88
2022-10-05T10:03:53.058Z,101054.03
2022-10-05T10:06:41.820Z,101053.19
2022-10-05T10:09:21.761Z,101053.59
2022-10-05T10:12:16.240Z,101051.09
2022-10-05T10:15:21.328Z,101043.22
2022-10-05T10:18:03.899Z,101042.41
2022-10-05T10:20:37.516Z,101047.56
2022-10-05T10:23:26.723Z,101049.94
2022-10-05T10:26:18.321Z,101042.78
2022-10-05T10:29:12.608Z,101042.28
2022-10-05T10:31:46.340Z,101042.69
2022-10-05T10:34:55.505Z,101043.72
2022-10-05T10:37:32.390Z,101056.12
2022-10-05T10:40:12.677Z,101045.25
2022-10-05T10:42:56.156Z,101043.72
2022-10-05T10:45:35.852Z,101045.53
2022-10-05T10:48:05.177Z,101046.63
2022-10-05T10:50:57.495Z,101049.38
2022-10-05T10:54:03.568Z,101042.44
2022-10-05T10:56:33.600Z,101041.56
2022-10-05T10:59:41.343Z,101047.44
2022-10-05T11:02:37.683Z,101044.22
2022-10-05T11:05:35.687Z,101043.44
2022-10-05T11:08:27.872Z,101036.28
2022-10-05T11:11:27.092Z,101043.37
2022-10-05T11:14:20.996Z,101043.22
2022-10-05T11:17:15.516Z,101042.50
2022-10-05T11:20:10.521Z,101037.81
2022-10-05T11:22:54.815Z,101034.16
2022-10-05T11:25:53.695Z,101027.88
2022-10-05T11:28:41.179Z,101021.53
2022-10-05T11:31:32.447Z,101022.56
2022-10-05T11:34:38.705Z,101028.62
2022-10-05T11:37:15.873Z,101022.44
2022-10-05T11:39:59.917Z,101002.87
2022-10-05T11:42:49.173Z,101006.09
2022-10-05T11:45:25.193Z,101003.81
2022-10-05T11:48:07.709Z,101000.69
2022-10-05T11:50:47.450Z,100999.59
2022-10-05T11:53:25.895Z,100988.16
2022-10-05T11:55:59.741Z,100998.75
2022-10-05T11:58:31.210Z,100986.16
2022-10-05T12:01:13.591Z,100991.22
2022-10-05T12:03:47.077Z,100983.16
2022-10-05T12:06:16.918Z,100984.34
2022-10-05T12:08:56.610Z,100974.59
2022-10-05T12:11:32.713Z,100969.28
2022-10-05T12:14:13.597Z,100975.91
2022-10-05T12:16:54.272Z,100968.87
2022-10-05T12:19:29.705Z,100971.38
2022-10-05T12:22:22.408Z,100971.44
2022-10-05T12:25:01.748Z,100970.59
2022-10-05T12:27:36.664Z,100967.91
2022-10-05T12:30:19.000Z,100961.84
2022-10-05T12:32:59.514Z,100964.94
2022-10-05T12:35:53.511Z,100964.00
2022-10-05T12:38:39.217Z,100966.78
2022-10-05T12:41:27.522Z,100962.34
2022-10-05T12:44:03.446Z,100965.00
2022-10-05T12:46:48.797Z,100959.72
2022-10-05T12:49:48.570Z,100954.47
2022-10-05T12:52:32.950Z,100942.94
2022-10-05T12:55:17.039Z,100954.16
2022-10-05T12:58:02.125Z,100948.13
2022-10-05T13:00:32.593Z,100943.44
2022-10-05T13:03:28.577Z,100937.03
2022-10-05T13:06:38.021Z,100937.91
2022-10-05T13:09:31.014Z,100936.62
2022-10-05T13:12:03.814Z,100939.44
2022-10-05T13:15:03.571Z,100933.44
2022-10-05T13:17:40.493Z,100935.13
2022-10-05T13:20:28.233Z,100937.72
2022-10-05T13:23:22.617Z,100934.22
2022-10-05T13:26:07.826Z,100938.03
2022-10-05T13:28:57.039Z,100929.28
2022-10-05T13:31:33.054Z,100927.69
2022-10-05T13:34:22.459Z,100922.59
2022-10-05T13:37:12.501Z,100924.19
2022-10-05T13:40:14.895Z,100923.03
2022-10-05T13:42:48.362Z,100924.44
2022-10-05T13:45:24.153Z,100924.31
2022-10-05T13:48:19.687Z,100915.97
2022-10-05T13:50:49.789Z,100921.13
2022-10-05T13:53:29.458Z,100921.34
2022-10-05T13:56:03.804Z,100910.75
2022-10-05T13:58:40.912Z,100919.66
2022-10-05T14:01:17.789Z,100922.28
2022-10-05T14:04:16.211Z,100921.47
2022-10-05T14:06:43.968Z,100922.16
2022-10-05T14:09:26.561Z,100916.06
2022-10-05T14:11:56.304Z,100917.00
2022-10-05T14:14:26.435Z,100916.69
2022-10-05T14:16:57.220Z,100917.38
2022-10-05T14:19:31.290Z,100912.16
2022-10-05T14:22:24.528Z,100926.03
2022-10-05T14:24:56.120Z,100925.94
2022-10-05T14:27:33.453Z,100915.03
2022-10-05T14:30:10.215Z,100919.13
2022-10-05T14:32:52.206Z,100933.56
2022-10-05T14:35:22.940Z,100922.97
2022-10-05T14:37:58.333Z,100913.03
2022-10-05T14:40:36.119Z,100921.91
2022-10-05T14:43:15.694Z,100917.44
2022-10-05T14:45:58.086Z,100924.87
2022-10-05T14:48:28.779Z,100919.41
2022-10-05T14:51:03.338Z,100917.00
2022-10-05T14:53:45.901Z,100922.41
2022-10-05T14:56:56.794Z,100918.03
2022-10-05T14:59:46.724Z,100918.03
2022-10-05T15:02:55.561Z,100920.78
2022-10-05T15:05:44.474Z,100918.41
2022-10-05T15:08:12.054Z,100910.56
2022-10-05T15:10:52.302Z,100918.56
2022-10-05T15:13:25.946Z,100920.78
2022-10-05T15:16:12.277Z,100915.97
2022-10-05T15:19:04.435Z,100925.19
2022-10-05T15:21:51.956Z,100912.97
2022-10-05T15:24:22.659Z,100894.28
2022-10-05T15:27:01.987Z,100889.72
2022-10-05T15:29:41.966Z,100882.03
2022-10-05T15:32:23.992Z,100884.81
2022-10-05T15:35:14.388Z,100897.22
2022-10-05T15:37:44.734Z,100902.50
2022-10-05T15:40:23.685Z,100904.72
2022-10-05T15:42:53.560Z,100887.94
2022-10-05T15:45:32.314Z,100888.03
2022-10-05T15:48:04.961Z,100884.63
2022-10-05T15:50:43.691Z,100882.91
2022-10-05T15:53:19.753Z,100888.31
2022-10-05T15:56:01.308Z,100897.59
2022-10-05T15:58:42.167Z,100895.16
2022-10-05T16:01:17.023Z,100895.06
2022-10-05T16:03:44.555Z,100898.56
2022-10-05T16:06:55.005Z,100892.31
2022-10-05T16:09:38.449Z,100889.97
2022-10-05T16:12:09.615Z,100897.16
2022-10-05T16:15:16.515Z,100893.69
2022-10-05T16:18:02.480Z,100903.44
2022-10-05T16:20:40.949Z,100900.59
2022-10-05T16:23:12.614Z,100906.91
2022-10-05T16:26:09.022Z,100908.59
2022-10-05T16:28:46.040Z,100913.00
2022-10-05T16:31:26.633Z,100924.72
2022-10-05T16:34:23.221Z,100920.56
2022-10-05T16:36:57.675Z,100923.25
2022-10-05T16:39:44.045Z,100924.31
2022-10-05T16:42:21.615Z,100922.53
2022-10-05T16:45:06.992Z,100922.63
2022-10-05T16:48:23.994Z,100933.44
2022-10-05T16:51:08.726Z,100934.47
2022-10-05T16:53:42.145Z,100932.00
2022-10-05T16:56:13.648Z,100931.00
2022-10-05T16:59:29.220Z,100926.69
2022-10-05T17:02:09.008Z,100936.47
2022-10-05T17:04:48.668Z,100941.00
2022-10-05T17:07:54.762Z,100941.94
2022-10-05T17:10:41.041Z,100945.69
2022-10-05T17:13:37.351Z,100951.94
2022-10-05T17:16:19.894Z,100956.31
2022-10-05T17:18:49.052Z,100958.31
2022-10-05T17:21:34.839Z,100952.09
2022-10-05T17:24:20.348Z,100956.63
2022-10-05T17:27:16.133Z,100959.37
2022-10-05T17:29:51.786Z,100963.84
2022-10-05T17:32:19.267Z,100963.06
2022-10-05T17:35:01.493Z,100972.75
2022-10-05T17:38:05.330Z,100964.03
2022-10-05T17:40:38.510Z,100961.47
2022-10-05T17:43:15.388Z,100972.13
2022-10-05T17:45:42.541Z,100974.81
2022-10-05T17:48:11.568Z,100966.09
2022-10-05T17:51:04.782Z,100972.28
2022-10-05T17:53:55.112Z,100971.31
2022-10-05T17:56:23.183Z,100967.97
2022-10-05T17:58:54.410Z,100971.56
2022-10-05T18:01:36.132Z,100967.25
2022-10-05T18:04:12.800Z,100968.94
2022-10-05T18:06:52.637Z,100974.31
2022-10-05T18:09:23.210Z,100978.69
2022-10-05T18:12:08.583Z,100965.44
2022-10-05T18:14:59.371Z,100968.97
2022-10-05T18:17:54.787Z,100963.63
2022-10-05T18:20:31.537Z,100963.50
2022-10-05T18:23:07.540Z,100968.87
2022-10-05T18:25:47.152Z,100966.22
2022-10-05T18:28:40.675Z,100968.78
2022-10-05T18:31:23.544Z,100975.03
2022-10-05T18:34:13.198Z,100976.69
2022-10-05T18:36:49.720Z,100973.84
2022-10-05T18:39:38.422Z,100976.72
2022-10-05T18:42:25.372Z,100973.06
2022-10-05T18:45:04.076Z,100972.22
2022-10-05T18:47:44.325Z,100964.94
2022-10-05T18:50:29.022Z,100962.53
2022-10-05T18:53:21.270Z,100964.94
2022-10-05T18:56:12.949Z,100952.69
2022-10-05T18:59:08.487Z,100957.97
2022-10-05T19:01:48.505Z,100956.28
2022-10-05T19:04:38.080Z,100962.47
2022-10-05T19:07:18.413Z,100964.25
2022-10-05T19:10:04.665Z,100968.63
2022-10-05T19:12:50.089Z,100965.97
2022-10-05T19:15:29.483Z,100969.53
2022-10-05T19:18:21.627Z,100972.13
2022-10-05T19:20:58.623Z,100970.38
2022-10-05T19:23:33.570Z,100972.22
2022-10-05T19:26:14.668Z,100974.94
2022-10-05T19:29:23.695Z,100975.75
2022-10-05T19:32:01.023Z,100977.59
2022-10-05T19:34:50.564Z,100982.16
2022-10-05T19:37:57.358Z,100975.13
2022-10-05T19:40:43.478Z,100975.97
2022-10-05T19:43:20.284Z,100983.09
2022-10-05T19:46:09.237Z,100978.69
2022-10-05T19:48:51.608Z,100977.03
2022-10-05T19:51:29.297Z,100984.91
2022-10-05T19:54:16.492Z,100984.09
2022-10-05T19:56:53.028Z,100989.41
2022-10-05T19:59:25.219Z,100985.03
2022-10-05T20:01:54.672Z,100988.56
2022-10-05T20:04:37.474Z,100986.03
2022-10-05T20:07:04.825Z,100995.69
2022-10-05T20:09:57.945Z,100996.56
2022-10-05T20:12:50.553Z,101007.09
2022-10-05T20:15:43.367Z,101008.84
2022-10-05T20:18:54.488Z,101021.16
2022-10-05T20:21:44.691Z,101016.00
2022-10-05T20:24:25.351Z,101019.56
2022-10-05T20:27:07.111Z,101012.59
2022-10-05T20:29:39.480Z,101016.16
2022-10-05T20:32:12.952Z,101025.78
2022-10-05T20:34:42.773Z,101022.28
2022-10-05T20:37:16.120Z,101027.53
2022-10-05T20:39:44.197Z,101028.47
2022-10-05T20:42:11.900Z,101027.53
2022-10-05T20:44:39.571Z,101026.75
2022-10-05T20:47:09.654Z,101021.47
2022-10-05T20:49:38.740Z,101020.59
2022-10-05T20:52:09.711Z,101017.19
2022-10-05T20:54:38.509Z,101020.63
2022-10-05T20:57:06.503Z,101024.13
2022-10-05T20:59:34.788Z,101025.06
2022-10-05T21:02:03.981Z,101020.72
2022-10-05T21:04:40.808Z,101018.97
2022-10-05T21:07:10.139Z,101025.09
2022-10-05T21:09:39.422Z,101023.34
2022-10-05T21:12:07.346Z,101024.25
2022-10-05T21:14:36.332Z,101026.91
2022-10-05T21:17:05.432Z,101019.91
2022-10-05T21:19:40.383Z,101019.03
2022-10-05T21:22:09.403Z,101026.94
2022-10-05T21:24:38.370Z,101026.91
2022-10-05T21:27:06.190Z,101025.16
2022-10-05T21:29:35.290Z,101027.78
2022-10-05T21:32:02.958Z,101028.66
2022-10-05T21:34:30.299Z,101029.56
2022-10-05T21:36:57.881Z,101019.94
2022-10-05T21:39:25.583Z,101024.31
2022-10-05T21:41:52.893Z,101023.41
2022-10-05T21:44:20.527Z,101026.91
2022-10-05T21:46:48.251Z,101026.06
2022-10-05T21:49:19.555Z,101026.03
2022-10-05T21:51:47.805Z,101030.41
2022-10-05T21:54:18.246Z,101017.28
2022-10-05T21:56:48.478Z,101026.87
2022-10-05T21:59:18.714Z,101020.78
2022-10-05T22:01:45.998Z,101022.53
2022-10-05T22:04:14.959Z,101018.16
2022-10-05T22:06:42.379Z,101023.41
2022-10-05T22:09:09.926Z,101030.41
2022-10-05T22:11:37.809Z,101026.91
2022-10-05T22:14:05.176Z,101021.62
2022-10-05T22:16:35.411Z,101019.91
2022-10-05T22:19:04.705Z,101020.72
2022-10-05T22:21:34.192Z,101020.75
2022-10-05T22:24:02.696Z,101009.38
2022-10-05T22:26:30.437Z,101011.13
2022-10-05T22:28:58.591Z,101004.97
2022-10-05T22:31:25.943Z,101007.59
2022-10-05T22:33:53.776Z,101015.47
2022-10-05T22:36:21.296Z,101006.72
2022-10-05T22:38:48.655Z,101007.59
2022-10-05T22:41:18.211Z,101006.72
2022-10-05T22:43:49.900Z,101005.84
2022-10-05T22:46:17.990Z,101000.56
2022-10-05T22:48:45.428Z,101004.97
2022-10-05T22:51:12.739Z,101002.31
2022-10-05T22:53:40.366Z,101009.31
2022-10-05T22:56:12.642Z,101003.22
2022-10-05T22:58:40.826Z,100998.84
2022-10-05T23:01:10.469Z,101000.56
2022-10-05T23:03:38.415Z,101004.03
2022-10-05T23:06:09.000Z,100994.44
2022-10-05T23:08:37.382Z,100990.97
2022-10-05T23:11:09.365Z,100983.94
2022-10-05T23:13:37.198Z,100988.28
2022-10-05T23:16:12.264Z,100988.31
2022-10-05T23:18:40.547Z,100996.13
2022-10-05T23:21:08.880Z,100983.13
2022-10-05T23:23:37.350Z,100981.34
2022-10-05T23:26:06.979Z,100979.63
2022-10-05T23:28:34.680Z,100981.28
2022-10-05T23:31:04.378Z,100977.81
2022-10-05T23:33:32.237Z,100979.53
2022-10-05T23:36:01.095Z,100971.72
2022-10-05T23:38:29.559Z,100976.06
2022-10-05T23:40:58.876Z,100975.19
2022-10-05T23:43:26.920Z,100977.78
2022-10-05T23:45:54.801Z,100970.81
2022-10-05T23:48:22.758Z,100980.41
2022-10-05T23:50:50.328Z,100977.81
2022-10-05T23:53:18.284Z,100973.41
2022-10-05T23:55:46.045Z,100975.16
2022-10-05T23:58:13.359Z,100975.19
